createdAt,value
2023-01-19T00:00:23.590Z,80.29
2023-01-19T00:01:55.169Z,81.00
2023-01-19T00:03:26.724Z,81.65
2023-01-19T00:04:59.370Z,81.42
2023-01-19T00:06:31.548Z,81.12
2023-01-19T00:08:14.631Z,80.86
2023-01-19T00:09:46.415Z,80.64
2023-01-19T00:11:19.105Z,81.23
2023-01-19T00:12:50.704Z,81.48
2023-01-19T00:14:22.608Z,80.67
2023-01-19T00:15:55.557Z,80.84
2023-01-19T00:17:27.139Z,81.25
2023-01-19T00:19:01.132Z,81.66
2023-01-19T00:20:32.899Z,81.79
2023-01-19T00:22:05.982Z,81.03
2023-01-19T00:23:37.563Z,81.25
2023-01-19T00:25:09.872Z,81.53
2023-01-19T00:26:42.779Z,81.27
2023-01-19T00:28:15.785Z,80.99
2023-01-19T00:29:47.389Z,81.53
2023-01-19T00:31:21.540Z,81.43
2023-01-19T00:32:53.251Z,81.60
2023-01-19T00:34:24.855Z,81.59
2023-01-19T00:35:56.446Z,81.65
2023-01-19T00:37:28.026Z,80.69
2023-01-19T00:38:59.627Z,80.76
2023-01-19T00:40:31.209Z,80.89
2023-01-19T00:42:25.720Z,81.70
2023-01-19T00:43:57.304Z,81.72
2023-01-19T00:45:28.964Z,82.10
2023-01-19T00:47:04.792Z,81.96
2023-01-19T00:48:36.375Z,81.46
2023-01-19T00:50:11.599Z,82.10
2023-01-19T00:51:43.902Z,82.47
2023-01-19T00:53:15.455Z,83.08
2023-01-19T00:54:47.047Z,82.72
2023-01-19T00:56:18.630Z,82.53
2023-01-19T00:57:50.198Z,82.86
2023-01-19T00:59:21.786Z,83.23
2023-01-19T01:00:53.899Z,83.90
2023-01-19T01:02:27.053Z,84.22
2023-01-19T01:03:58.732Z,84.54
2023-01-19T01:05:30.355Z,83.46
2023-01-19T01:07:02.051Z,84.00
2023-01-19T01:08:33.699Z,84.09
2023-01-19T01:10:06.923Z,84.06
2023-01-19T01:11:38.620Z,83.40
2023-01-19T01:13:20.243Z,83.91
2023-01-19T01:14:55.500Z,84.27
2023-01-19T01:16:27.112Z,83.96
2023-01-19T01:18:00.040Z,84.16
2023-01-19T01:19:31.700Z,84.28
2023-01-19T01:21:03.508Z,83.97
2023-01-19T01:22:35.342Z,84.35
2023-01-19T01:24:07.930Z,85.33
2023-01-19T01:25:39.513Z,85.22
2023-01-19T01:27:11.796Z,85.49
2023-01-19T01:28:43.363Z,84.88
2023-01-19T01:30:15.363Z,85.69
2023-01-19T01:31:47.016Z,86.55
2023-01-19T01:33:41.355Z,86.01
2023-01-19T01:35:11.758Z,87.03
2023-01-19T01:36:43.559Z,85.96
2023-01-19T01:38:15.279Z,86.31
2023-01-19T01:39:46.855Z,86.65
2023-01-19T01:41:19.408Z,87.06
2023-01-19T01:42:53.512Z,87.60
2023-01-19T01:44:50.902Z,86.67
2023-01-19T01:46:22.494Z,87.79
2023-01-19T01:47:54.108Z,86.69
2023-01-19T01:49:27.081Z,86.80
2023-01-19T01:51:18.198Z,86.13
2023-01-19T01:53:06.582Z,86.65
2023-01-19T01:54:39.391Z,85.63
2023-01-19T01:56:13.349Z,86.63
2023-01-19T01:57:48.159Z,86.18
2023-01-19T01:59:29.731Z,86.23
2023-01-19T02:01:20.397Z,85.43
2023-01-19T02:02:52.188Z,86.29
2023-01-19T02:04:23.903Z,86.17
2023-01-19T02:05:59.236Z,85.94
2023-01-19T02:07:52.255Z,85.72
2023-01-19T02:09:42.594Z,85.80
2023-01-19T02:11:32.946Z,85.78
2023-01-19T02:13:20.583Z,86.14
2023-01-19T02:14:52.201Z,85.51
2023-01-19T02:16:23.831Z,85.61
2023-01-19T02:17:58.418Z,85.89
2023-01-19T02:19:31.927Z,85.45
2023-01-19T02:21:08.606Z,85.75
2023-01-19T02:22:44.233Z,85.99
2023-01-19T02:24:17.499Z,85.79
2023-01-19T02:25:49.142Z,85.95
2023-01-19T02:27:20.702Z,86.45
2023-01-19T02:28:53.996Z,86.70
2023-01-19T02:30:25.686Z,86.20
2023-01-19T02:31:59.721Z,85.90
2023-01-19T02:33:31.523Z,86.49
2023-01-19T02:35:03.225Z,86.14
2023-01-19T02:36:38.146Z,85.24
2023-01-19T02:38:09.716Z,85.83
2023-01-19T02:39:45.171Z,85.66
2023-01-19T02:41:19.186Z,85.86
2023-01-19T02:42:50.774Z,85.75
2023-01-19T02:44:22.455Z,86.30
2023-01-19T02:45:54.533Z,85.80
2023-01-19T02:47:26.211Z,85.72
2023-01-19T02:48:58.989Z,85.92
2023-01-19T02:50:39.379Z,86.22
2023-01-19T02:52:15.473Z,86.21
2023-01-19T02:53:53.658Z,86.79
2023-01-19T02:55:28.014Z,86.35
2023-01-19T02:57:17.896Z,86.08
2023-01-19T02:58:51.441Z,84.85
2023-01-19T03:00:28.337Z,85.23
2023-01-19T03:02:08.934Z,85.17
2023-01-19T03:03:44.167Z,85.55
2023-01-19T03:05:29.512Z,85.31
2023-01-19T03:07:04.003Z,85.83
2023-01-19T03:08:42.450Z,86.02
2023-01-19T03:10:15.810Z,86.66
2023-01-19T03:11:52.236Z,86.26
2023-01-19T03:13:27.174Z,86.38
2023-01-19T03:15:01.730Z,85.95
2023-01-19T03:16:35.561Z,85.90
2023-01-19T03:18:08.258Z,85.35
2023-01-19T03:19:41.072Z,85.78
2023-01-19T03:21:13.236Z,86.01
2023-01-19T03:22:44.916Z,86.04
2023-01-19T03:24:17.132Z,86.25
2023-01-19T03:25:48.735Z,85.80
2023-01-19T03:27:24.350Z,86.08
2023-01-19T03:28:55.951Z,85.83
2023-01-19T03:30:29.111Z,86.03
2023-01-19T03:32:01.718Z,86.07
2023-01-19T03:33:34.211Z,85.61
2023-01-19T03:35:08.515Z,85.97
2023-01-19T03:36:42.401Z,86.03
2023-01-19T03:38:15.820Z,86.69
2023-01-19T03:39:47.425Z,86.53
2023-01-19T03:41:19.651Z,86.52
2023-01-19T03:42:52.564Z,86.36
2023-01-19T03:44:24.142Z,86.77
2023-01-19T03:45:55.880Z,86.47
2023-01-19T03:47:27.528Z,86.58
2023-01-19T03:48:59.147Z,85.79
2023-01-19T03:50:30.984Z,86.92
2023-01-19T03:52:02.565Z,86.25
2023-01-19T03:53:34.330Z,85.61
2023-01-19T03:55:06.545Z,85.06
2023-01-19T03:56:38.107Z,85.60
2023-01-19T03:58:11.100Z,85.97
2023-01-19T03:59:42.714Z,86.04
2023-01-19T04:01:14.928Z,85.14
2023-01-19T04:02:46.726Z,85.28
2023-01-19T04:04:18.399Z,85.45
2023-01-19T04:05:49.973Z,85.61
2023-01-19T04:07:21.553Z,85.42
2023-01-19T04:08:53.895Z,85.50
2023-01-19T04:10:25.523Z,84.60
2023-01-19T04:11:57.264Z,84.33
2023-01-19T04:13:30.529Z,84.86
2023-01-19T04:15:02.178Z,85.26
2023-01-19T04:16:33.793Z,85.91
2023-01-19T04:18:06.916Z,85.51
2023-01-19T04:19:38.619Z,85.45
2023-01-19T04:21:10.872Z,85.59
2023-01-19T04:22:42.568Z,85.40
2023-01-19T04:24:14.135Z,85.87
2023-01-19T04:25:45.721Z,86.30
2023-01-19T04:27:17.633Z,85.34
2023-01-19T04:28:50.583Z,85.13
2023-01-19T04:30:22.654Z,84.87
2023-01-19T04:31:54.270Z,84.58
2023-01-19T04:33:26.669Z,85.33
2023-01-19T04:34:58.270Z,85.18
2023-01-19T04:36:29.833Z,85.29
2023-01-19T04:38:01.387Z,84.80
2023-01-19T04:39:32.995Z,85.21
2023-01-19T04:41:04.904Z,84.79
2023-01-19T04:42:36.460Z,84.78
2023-01-19T04:44:09.494Z,84.52
2023-01-19T04:45:41.139Z,85.08
2023-01-19T04:47:12.766Z,84.38
2023-01-19T04:48:44.328Z,83.90
2023-01-19T04:50:16.853Z,84.90
2023-01-19T04:51:48.420Z,84.53
2023-01-19T04:53:20.034Z,84.32
2023-01-19T04:54:51.634Z,84.84
2023-01-19T04:56:23.269Z,84.78
2023-01-19T04:57:54.894Z,84.72
2023-01-19T04:59:27.836Z,84.49
2023-01-19T05:00:59.824Z,84.74
2023-01-19T05:02:31.491Z,83.97
2023-01-19T05:04:05.123Z,84.31
2023-01-19T05:05:36.713Z,84.90
2023-01-19T05:07:08.268Z,84.77
2023-01-19T05:08:40.006Z,84.46
2023-01-19T05:10:11.745Z,84.65
2023-01-19T05:11:43.396Z,83.82
2023-01-19T05:13:14.925Z,84.20
2023-01-19T05:14:47.862Z,84.37
2023-01-19T05:16:19.493Z,84.83
2023-01-19T05:17:51.206Z,85.02
2023-01-19T05:19:23.642Z,84.45
2023-01-19T05:20:55.216Z,85.20
2023-01-19T05:22:26.787Z,84.94
2023-01-19T05:23:58.360Z,84.84
2023-01-19T05:25:29.946Z,85.31
2023-01-19T05:27:01.768Z,85.02
2023-01-19T05:28:33.592Z,84.34
2023-01-19T05:30:07.741Z,84.54
2023-01-19T05:31:39.376Z,84.86
2023-01-19T05:33:11.039Z,84.42
2023-01-19T05:34:42.660Z,85.01
2023-01-19T05:36:14.241Z,84.55
2023-01-19T05:37:45.885Z,84.13
2023-01-19T05:39:18.947Z,84.32
2023-01-19T05:40:56.730Z,84.31
2023-01-19T05:42:28.279Z,84.54
2023-01-19T05:43:59.872Z,84.30
2023-01-19T05:45:32.976Z,84.96
2023-01-19T05:47:05.210Z,84.29
2023-01-19T05:48:36.863Z,85.06
2023-01-19T05:50:09.217Z,84.42
2023-01-19T05:51:45.289Z,85.26
2023-01-19T05:53:17.161Z,84.64
2023-01-19T05:54:48.853Z,83.95
2023-01-19T05:56:20.810Z,84.10
2023-01-19T05:57:52.380Z,84.95
2023-01-19T05:59:24.348Z,84.09
2023-01-19T06:00:57.420Z,84.88
2023-01-19T06:02:30.108Z,84.74
2023-01-19T06:04:01.747Z,84.86
2023-01-19T06:05:33.963Z,84.53
2023-01-19T06:07:06.503Z,85.05
2023-01-19T06:08:38.101Z,85.47
2023-01-19T06:10:11.046Z,85.47
2023-01-19T06:11:42.758Z,85.00
2023-01-19T06:13:14.352Z,84.21
2023-01-19T06:14:46.026Z,86.15
2023-01-19T06:16:19.020Z,85.56
2023-01-19T06:17:50.835Z,85.01
2023-01-19T06:19:22.443Z,84.79
2023-01-19T06:20:58.692Z,84.99
2023-01-19T06:22:30.276Z,85.79
2023-01-19T06:24:01.840Z,85.62
2023-01-19T06:25:33.427Z,85.82
2023-01-19T06:27:06.541Z,85.28
2023-01-19T06:28:38.131Z,84.76
2023-01-19T06:30:11.898Z,84.53
2023-01-19T06:31:44.849Z,84.14
2023-01-19T06:33:16.749Z,84.38
2023-01-19T06:34:48.389Z,84.34
2023-01-19T06:36:19.998Z,84.54
2023-01-19T06:37:52.425Z,83.95
2023-01-19T06:39:24.002Z,84.41
2023-01-19T06:40:58.336Z,83.66
2023-01-19T06:42:29.897Z,83.83
2023-01-19T06:44:01.507Z,84.01
2023-01-19T06:45:33.150Z,83.87
2023-01-19T06:47:15.276Z,84.19
2023-01-19T06:48:48.041Z,84.00
2023-01-19T06:50:19.756Z,83.58
2023-01-19T06:51:51.321Z,83.07
2023-01-19T06:53:22.940Z,84.33
2023-01-19T06:54:54.554Z,83.38
2023-01-19T06:56:28.235Z,84.20
2023-01-19T06:58:00.541Z,83.73
2023-01-19T06:59:32.115Z,83.23
2023-01-19T07:01:04.187Z,83.75
2023-01-19T07:02:37.619Z,82.82
2023-01-19T07:04:10.621Z,84.62
2023-01-19T07:05:42.227Z,84.06
2023-01-19T07:07:13.805Z,84.29
2023-01-19T07:08:45.420Z,83.84
2023-01-19T07:10:17.068Z,84.05
2023-01-19T07:11:48.776Z,83.97
2023-01-19T07:13:21.667Z,83.42
2023-01-19T07:14:53.258Z,83.07
2023-01-19T07:16:25.243Z,83.25
2023-01-19T07:17:59.128Z,83.17
2023-01-19T07:19:31.196Z,83.98
2023-01-19T07:21:02.923Z,83.71
2023-01-19T07:22:34.533Z,82.81
2023-01-19T07:24:06.613Z,83.94
2023-01-19T07:25:39.603Z,83.23
2023-01-19T07:27:14.738Z,83.88
2023-01-19T07:28:47.449Z,83.86
2023-01-19T07:30:19.892Z,82.52
2023-01-19T07:31:54.367Z,83.04
2023-01-19T07:33:27.420Z,83.11
2023-01-19T07:34:59.025Z,82.65
2023-01-19T07:36:30.575Z,82.90
2023-01-19T07:38:02.165Z,82.82
2023-01-19T07:39:36.498Z,82.35
2023-01-19T07:41:09.173Z,83.08
2023-01-19T07:42:45.706Z,82.69
2023-01-19T07:44:17.302Z,83.86
2023-01-19T07:45:48.938Z,82.75
2023-01-19T07:47:20.687Z,83.46
2023-01-19T07:48:53.614Z,82.94
2023-01-19T07:50:27.597Z,82.49
2023-01-19T07:51:59.176Z,83.03
2023-01-19T07:53:30.791Z,83.15
2023-01-19T07:55:02.404Z,83.25
2023-01-19T07:56:34.218Z,83.16
2023-01-19T07:58:07.350Z,83.30
2023-01-19T07:59:39.186Z,82.08
2023-01-19T08:01:11.905Z,83.54
2023-01-19T08:02:43.975Z,82.91
2023-01-19T08:04:19.048Z,83.69
2023-01-19T08:05:51.224Z,83.46
2023-01-19T08:07:22.846Z,83.33
2023-01-19T08:08:54.437Z,82.73
2023-01-19T08:10:26.746Z,83.35
2023-01-19T08:11:58.364Z,82.93
2023-01-19T08:13:29.976Z,83.23
2023-01-19T08:15:01.558Z,83.62
2023-01-19T08:16:33.225Z,83.34
2023-01-19T08:18:05.714Z,82.78
2023-01-19T08:19:41.402Z,83.34
2023-01-19T08:21:13.103Z,83.05
2023-01-19T08:22:47.095Z,82.77
2023-01-19T08:24:19.728Z,82.60
2023-01-19T08:25:51.453Z,82.63
2023-01-19T08:27:23.040Z,83.37
2023-01-19T08:28:54.626Z,83.17
2023-01-19T08:30:26.929Z,82.63
2023-01-19T08:32:00.159Z,82.56
2023-01-19T08:33:31.945Z,83.14
2023-01-19T08:35:06.178Z,82.75
2023-01-19T08:36:37.752Z,82.61
2023-01-19T08:38:09.677Z,82.67
2023-01-19T08:39:41.268Z,82.50
2023-01-19T08:41:13.123Z,82.08
2023-01-19T08:42:44.816Z,82.54
2023-01-19T08:44:16.523Z,81.85
2023-01-19T08:45:50.539Z,82.12
2023-01-19T08:47:22.173Z,82.84
2023-01-19T08:48:54.934Z,81.84
2023-01-19T08:50:28.119Z,82.96
2023-01-19T08:51:59.678Z,82.38
2023-01-19T08:53:31.240Z,82.21
2023-01-19T08:55:02.870Z,81.83
2023-01-19T08:56:34.452Z,81.87
2023-01-19T08:58:06.199Z,81.36
2023-01-19T08:59:38.202Z,81.88
2023-01-19T09:01:10.069Z,81.87
2023-01-19T09:02:41.760Z,82.24
2023-01-19T09:04:13.373Z,81.58
2023-01-19T09:05:46.382Z,81.95
2023-01-19T09:07:18.534Z,81.75
2023-01-19T09:08:50.105Z,81.73
2023-01-19T09:10:21.734Z,80.79
2023-01-19T09:11:53.865Z,80.51
2023-01-19T09:13:25.470Z,81.21
2023-01-19T09:14:57.074Z,81.00
2023-01-19T09:16:29.296Z,81.40
2023-01-19T09:18:02.297Z,80.88
2023-01-19T09:19:35.156Z,80.18
2023-01-19T09:21:08.753Z,80.89
2023-01-19T09:22:40.295Z,79.95
2023-01-19T09:24:11.926Z,81.07
2023-01-19T09:25:44.431Z,80.13
2023-01-19T09:27:16.105Z,80.12
2023-01-19T09:28:47.731Z,79.50
2023-01-19T09:30:19.523Z,80.37
2023-01-19T09:31:51.184Z,79.64
2023-01-19T09:33:23.021Z,79.75
2023-01-19T09:34:56.445Z,79.00
2023-01-19T09:36:30.133Z,79.28
2023-01-19T09:38:02.063Z,79.61
2023-01-19T09:39:33.978Z,79.87
2023-01-19T09:41:12.615Z,79.86
2023-01-19T09:42:44.668Z,80.29
2023-01-19T09:44:17.451Z,80.21
2023-01-19T09:45:50.538Z,79.75
2023-01-19T09:47:25.385Z,80.67
2023-01-19T09:48:58.421Z,79.78
2023-01-19T09:50:31.950Z,80.04
2023-01-19T09:52:05.314Z,79.25
2023-01-19T09:53:43.512Z,79.71
2023-01-19T09:55:19.610Z,79.10
2023-01-19T09:56:52.873Z,78.42
2023-01-19T09:58:24.550Z,77.41
2023-01-19T09:59:59.774Z,78.04
2023-01-19T10:01:55.351Z,78.88
2023-01-19T10:03:27.208Z,78.64
2023-01-19T10:05:00.117Z,78.68
2023-01-19T10:06:31.718Z,78.18
2023-01-19T10:08:13.361Z,78.81
2023-01-19T10:09:51.178Z,77.99
2023-01-19T10:11:34.371Z,78.59
2023-01-19T10:13:25.899Z,78.36
2023-01-19T10:14:59.410Z,78.81
2023-01-19T10:16:35.127Z,76.79
2023-01-19T10:18:13.852Z,77.39
2023-01-19T10:19:46.836Z,77.22
2023-01-19T10:21:19.955Z,77.17
2023-01-19T10:22:51.930Z,77.51
2023-01-19T10:24:26.697Z,77.55
2023-01-19T10:25:59.177Z,77.07
2023-01-19T10:27:31.531Z,77.42
2023-01-19T10:29:05.375Z,75.18
2023-01-19T10:30:37.027Z,77.02
2023-01-19T10:32:10.049Z,76.18
2023-01-19T10:33:41.695Z,76.07
2023-01-19T10:35:14.526Z,75.51
2023-01-19T10:36:47.552Z,76.48
2023-01-19T10:38:22.372Z,76.36
2023-01-19T10:39:56.190Z,76.03
2023-01-19T10:41:31.717Z,75.60
2023-01-19T10:43:37.493Z,76.59
2023-01-19T10:45:14.809Z,74.64
2023-01-19T10:46:47.166Z,74.28
2023-01-19T10:48:18.728Z,74.05
2023-01-19T10:49:50.449Z,74.55
2023-01-19T10:51:22.253Z,74.46
2023-01-19T10:52:54.535Z,75.05
2023-01-19T10:54:26.211Z,73.54
2023-01-19T10:56:14.827Z,73.87
2023-01-19T10:57:48.749Z,74.77
2023-01-19T10:59:34.739Z,74.55
2023-01-19T11:01:14.719Z,73.84
2023-01-19T11:02:49.843Z,74.36
2023-01-19T11:04:25.683Z,75.39
2023-01-19T11:05:58.987Z,74.49
2023-01-19T11:07:32.957Z,74.70
2023-01-19T11:09:12.510Z,75.69
2023-01-19T11:10:44.099Z,74.77
2023-01-19T11:12:18.009Z,75.45
2023-01-19T11:14:03.752Z,74.79
2023-01-19T11:15:36.274Z,75.03
2023-01-19T11:17:10.785Z,75.23
2023-01-19T11:18:42.611Z,75.56
2023-01-19T11:20:19.967Z,74.01
2023-01-19T11:21:51.579Z,72.99
2023-01-19T11:23:25.890Z,73.35
2023-01-19T11:24:58.578Z,72.34
2023-01-19T11:26:32.593Z,73.19
2023-01-19T11:28:05.810Z,72.94
2023-01-19T11:29:37.555Z,72.77
2023-01-19T11:31:17.363Z,73.74
2023-01-19T11:32:49.327Z,71.75
2023-01-19T11:34:26.393Z,70.98
2023-01-19T11:36:05.966Z,71.90
2023-01-19T11:37:37.626Z,73.65
2023-01-19T11:39:20.919Z,72.29
2023-01-19T11:40:54.233Z,71.65
2023-01-19T11:42:25.930Z,71.24
2023-01-19T11:44:02.112Z,71.68
2023-01-19T11:45:33.813Z,71.06
2023-01-19T11:47:06.723Z,71.90
2023-01-19T11:48:40.543Z,71.85
2023-01-19T11:50:14.809Z,71.55
2023-01-19T11:51:51.067Z,71.86
2023-01-19T11:53:26.715Z,72.31
2023-01-19T11:55:00.874Z,71.29
2023-01-19T11:56:32.434Z,72.30
2023-01-19T11:58:04.385Z,71.67
2023-01-19T11:59:37.648Z,72.41
2023-01-19T12:01:12.943Z,72.06
2023-01-19T12:02:45.211Z,71.15
2023-01-19T12:04:17.828Z,71.08
2023-01-19T12:05:51.586Z,70.94
2023-01-19T12:07:25.597Z,71.66
2023-01-19T12:08:58.514Z,71.84
2023-01-19T12:10:31.394Z,70.03
2023-01-19T12:12:04.129Z,71.44
2023-01-19T12:13:35.747Z,71.70
2023-01-19T12:15:12.091Z,71.98
2023-01-19T12:16:43.899Z,71.63
2023-01-19T12:18:17.951Z,71.36
2023-01-19T12:19:54.864Z,72.49
2023-01-19T12:21:26.824Z,71.40
2023-01-19T12:23:03.260Z,71.34
2023-01-19T12:24:36.600Z,70.41
2023-01-19T12:26:29.341Z,70.85
2023-01-19T12:28:00.965Z,71.27
2023-01-19T12:29:33.694Z,70.65
2023-01-19T12:31:07.972Z,71.38
2023-01-19T12:32:39.705Z,71.60
2023-01-19T12:34:38.575Z,69.41
2023-01-19T12:36:10.957Z,70.98
2023-01-19T12:37:42.866Z,70.95
2023-01-19T12:39:17.063Z,70.22
2023-01-19T12:40:48.637Z,69.80
2023-01-19T12:42:21.393Z,69.93
2023-01-19T12:44:30.724Z,71.83
2023-01-19T12:46:02.374Z,71.86
2023-01-19T12:47:35.351Z,71.19
2023-01-19T12:49:09.844Z,70.75
2023-01-19T12:50:41.556Z,70.33
2023-01-19T12:52:22.654Z,71.29
2023-01-19T12:53:55.068Z,70.04
2023-01-19T12:55:27.277Z,69.79
2023-01-19T12:56:59.702Z,70.41
2023-01-19T12:58:31.887Z,70.13
2023-01-19T13:00:25.122Z,70.74
2023-01-19T13:02:46.382Z,69.51
2023-01-19T13:04:30.978Z,72.00
2023-01-19T13:06:02.589Z,70.24
2023-01-19T13:08:08.330Z,70.48
2023-01-19T13:09:40.044Z,70.96
2023-01-19T13:11:16.788Z,70.43
2023-01-19T13:13:12.863Z,69.75
2023-01-19T13:14:44.471Z,69.33
2023-01-19T13:16:57.528Z,68.49
2023-01-19T13:18:29.752Z,69.71
2023-01-19T13:23:02.725Z,68.11
2023-01-19T13:25:04.734Z,67.36
2023-01-19T13:26:38.412Z,67.24
2023-01-19T13:28:10.218Z,66.45
2023-01-19T13:29:41.867Z,66.50
2023-01-19T13:31:13.562Z,66.95
2023-01-19T13:32:45.202Z,66.83
2023-01-19T13:34:18.205Z,67.54
2023-01-19T13:35:51.670Z,66.22
2023-01-19T13:37:24.212Z,66.90
2023-01-19T13:38:56.249Z,66.86
2023-01-19T13:40:33.452Z,67.32
2023-01-19T13:42:05.903Z,66.01
2023-01-19T13:43:37.578Z,66.87
2023-01-19T13:45:17.025Z,67.61
2023-01-19T13:46:48.619Z,66.72
2023-01-19T13:48:22.201Z,67.40
2023-01-19T13:49:56.294Z,66.85
2023-01-19T13:51:27.900Z,66.81
2023-01-19T13:52:59.594Z,66.79
2023-01-19T13:54:31.211Z,67.34
2023-01-19T13:56:20.742Z,68.29
2023-01-19T13:57:52.640Z,67.32
2023-01-19T13:59:24.241Z,67.91
2023-01-19T14:00:55.847Z,66.83
2023-01-19T14:02:27.495Z,66.13
2023-01-19T14:03:59.512Z,65.65
2023-01-19T14:05:31.996Z,67.08
2023-01-19T14:07:05.221Z,65.54
2023-01-19T14:08:36.855Z,65.39
2023-01-19T14:10:12.823Z,66.67
2023-01-19T14:11:46.809Z,65.55
2023-01-19T14:13:19.749Z,64.16
2023-01-19T14:14:51.399Z,65.03
2023-01-19T14:16:23.820Z,64.88
2023-01-19T14:18:09.338Z,67.00
2023-01-19T14:19:47.937Z,68.44
2023-01-19T14:21:19.595Z,67.01
2023-01-19T14:22:51.780Z,66.08
2023-01-19T14:24:23.927Z,64.11
2023-01-19T14:25:55.540Z,65.87
2023-01-19T14:27:28.448Z,67.29
2023-01-19T14:29:00.923Z,67.11
2023-01-19T14:30:32.538Z,65.94
2023-01-19T14:32:06.862Z,67.60
2023-01-19T14:33:41.383Z,65.85
2023-01-19T14:35:13.590Z,66.43
2023-01-19T14:36:45.262Z,66.40
2023-01-19T14:38:16.801Z,65.85
2023-01-19T14:39:49.421Z,66.60
2023-01-19T14:41:24.721Z,68.50
2023-01-19T14:43:00.106Z,67.92
2023-01-19T14:44:33.874Z,67.37
2023-01-19T14:46:05.449Z,67.04
2023-01-19T14:47:37.874Z,66.38
2023-01-19T14:49:17.411Z,66.10
2023-01-19T14:51:02.427Z,66.84
2023-01-19T14:52:37.677Z,66.57
2023-01-19T14:54:12.101Z,67.36
2023-01-19T14:55:45.465Z,67.25
2023-01-19T14:57:17.025Z,66.46
2023-01-19T14:58:49.926Z,66.02
2023-01-19T15:00:22.041Z,66.96
2023-01-19T15:01:54.084Z,67.62
2023-01-19T15:03:38.583Z,66.19
2023-01-19T15:05:15.044Z,66.92
2023-01-19T15:06:47.208Z,67.24
2023-01-19T15:08:20.067Z,67.78
2023-01-19T15:09:51.629Z,67.15
2023-01-19T15:11:24.444Z,67.00
2023-01-19T15:12:56.023Z,67.96
2023-01-19T15:14:29.045Z,68.92
2023-01-19T15:16:00.649Z,68.65
2023-01-19T15:17:32.206Z,67.75
2023-01-19T15:19:03.971Z,67.81
2023-01-19T15:20:35.552Z,68.64
2023-01-19T15:22:10.992Z,67.64
2023-01-19T15:23:42.568Z,67.74
2023-01-19T15:25:14.643Z,67.34
2023-01-19T15:26:46.252Z,68.81
2023-01-19T15:28:18.743Z,68.22
2023-01-19T15:29:51.749Z,68.15
2023-01-19T15:31:23.986Z,66.62
2023-01-19T15:32:55.630Z,67.53
2023-01-19T15:34:27.196Z,66.58
2023-01-19T15:35:58.761Z,65.93
2023-01-19T15:37:30.578Z,66.40
2023-01-19T15:39:02.147Z,66.85
2023-01-19T15:40:33.824Z,65.95
2023-01-19T15:42:09.212Z,66.92
2023-01-19T15:43:40.875Z,66.12
2023-01-19T15:45:34.838Z,66.96
2023-01-19T15:47:06.464Z,65.69
2023-01-19T15:48:38.035Z,67.82
2023-01-19T15:50:10.851Z,67.81
2023-01-19T15:51:42.480Z,67.58
2023-01-19T15:53:14.765Z,68.24
2023-01-19T15:54:46.387Z,68.51
2023-01-19T15:56:19.377Z,68.40
2023-01-19T15:57:50.944Z,68.13
2023-01-19T15:59:23.673Z,68.17
2023-01-19T16:00:57.398Z,66.71
2023-01-19T16:02:29.192Z,67.57
2023-01-19T16:04:01.909Z,68.11
2023-01-19T16:05:42.579Z,67.37
2023-01-19T16:07:14.918Z,69.99
2023-01-19T16:08:46.503Z,70.58
2023-01-19T16:10:18.340Z,69.09
2023-01-19T16:11:49.901Z,69.44
2023-01-19T16:13:21.726Z,69.16
2023-01-19T16:14:53.314Z,68.33
2023-01-19T16:16:26.728Z,68.25
2023-01-19T16:17:58.471Z,68.56
2023-01-19T16:19:30.129Z,68.99
2023-01-19T16:21:01.692Z,68.60
2023-01-19T16:22:33.297Z,69.39
2023-01-19T16:24:05.142Z,70.19
2023-01-19T16:25:36.811Z,69.37
2023-01-19T16:27:08.859Z,69.47
2023-01-19T16:28:40.421Z,68.95
2023-01-19T16:30:13.067Z,69.53
2023-01-19T16:31:46.116Z,69.51
2023-01-19T16:33:17.672Z,69.28
2023-01-19T16:34:49.326Z,69.55
2023-01-19T16:36:22.899Z,70.04
2023-01-19T16:37:54.475Z,68.88
2023-01-19T16:39:26.026Z,69.14
2023-01-19T16:40:57.579Z,70.49
2023-01-19T16:42:29.143Z,68.79
2023-01-19T16:44:00.726Z,70.47
2023-01-19T16:45:32.377Z,68.50
2023-01-19T16:47:05.371Z,68.69
2023-01-19T16:48:37.219Z,69.15
2023-01-19T16:50:10.775Z,69.71
2023-01-19T16:51:42.909Z,69.12
2023-01-19T16:53:14.454Z,68.75
2023-01-19T16:54:46.192Z,69.33
2023-01-19T16:56:17.906Z,67.87
2023-01-19T16:57:49.594Z,69.83
2023-01-19T16:59:21.973Z,71.09
2023-01-19T17:00:53.637Z,69.50
2023-01-19T17:02:26.806Z,70.15
2023-01-19T17:03:58.383Z,69.55
2023-01-19T17:05:29.943Z,69.46
2023-01-19T17:07:01.553Z,69.26
2023-01-19T17:08:33.578Z,70.49
2023-01-19T17:10:06.528Z,68.73
2023-01-19T17:11:40.176Z,69.42
2023-01-19T17:13:11.828Z,68.38
2023-01-19T17:14:43.439Z,67.97
2023-01-19T17:16:15.094Z,68.48
2023-01-19T17:17:48.043Z,67.75
2023-01-19T17:19:20.228Z,68.30
2023-01-19T17:20:51.818Z,68.26
2023-01-19T17:22:23.385Z,68.60
2023-01-19T17:23:55.586Z,67.35
2023-01-19T17:25:27.174Z,67.44
2023-01-19T17:26:58.792Z,67.96
2023-01-19T17:28:30.413Z,68.36
2023-01-19T17:30:02.101Z,68.76
2023-01-19T17:31:33.894Z,70.44
2023-01-19T17:33:06.818Z,69.74
2023-01-19T17:34:38.528Z,70.56
2023-01-19T17:36:12.716Z,69.67
2023-01-19T17:37:44.290Z,67.92
2023-01-19T17:39:16.816Z,68.24
2023-01-19T17:40:48.399Z,68.43
2023-01-19T17:42:19.975Z,68.77
2023-01-19T17:43:52.098Z,69.04
2023-01-19T17:45:23.685Z,69.58
2023-01-19T17:46:56.347Z,68.57
2023-01-19T17:48:29.659Z,68.60
2023-01-19T17:50:01.367Z,70.45
2023-01-19T17:51:33.027Z,67.38
2023-01-19T17:53:04.707Z,68.21
2023-01-19T17:54:36.281Z,68.15
2023-01-19T17:56:09.167Z,68.33
2023-01-19T17:57:40.755Z,69.34
2023-01-19T17:59:12.360Z,70.56
2023-01-19T18:00:43.925Z,68.38
2023-01-19T18:02:15.574Z,69.25
2023-01-19T18:03:48.594Z,69.07
2023-01-19T18:05:20.216Z,67.54
2023-01-19T18:06:51.775Z,68.87
2023-01-19T18:08:23.339Z,69.87
2023-01-19T18:09:56.929Z,69.09
2023-01-19T18:11:28.506Z,67.28
2023-01-19T18:13:00.090Z,68.89
2023-01-19T18:14:31.723Z,67.65
2023-01-19T18:16:04.129Z,67.80
2023-01-19T18:17:35.835Z,68.74
2023-01-19T18:19:08.767Z,66.94
2023-01-19T18:20:40.834Z,67.18
2023-01-19T18:22:12.496Z,68.47
2023-01-19T18:23:45.113Z,67.07
2023-01-19T18:25:16.838Z,68.52
2023-01-19T18:26:48.436Z,69.50
2023-01-19T18:28:20.028Z,69.41
2023-01-19T18:29:51.621Z,69.59
2023-01-19T18:31:23.351Z,69.51
2023-01-19T18:32:54.936Z,70.65
2023-01-19T18:34:27.984Z,69.65
2023-01-19T18:35:59.575Z,71.27
2023-01-19T18:37:31.194Z,69.96
2023-01-19T18:39:02.790Z,69.97
2023-01-19T18:40:34.371Z,70.42
2023-01-19T18:42:06.026Z,70.52
2023-01-19T18:43:37.600Z,70.98
2023-01-19T18:45:10.165Z,71.20
2023-01-19T18:46:41.800Z,71.17
2023-01-19T18:48:13.442Z,68.92
2023-01-19T18:49:46.498Z,70.66
2023-01-19T18:51:18.184Z,71.95
2023-01-19T18:52:51.308Z,71.81
2023-01-19T18:54:22.963Z,72.73
2023-01-19T18:55:55.342Z,73.02
2023-01-19T18:57:26.928Z,74.04
2023-01-19T18:58:58.644Z,73.56
2023-01-19T19:00:30.239Z,73.75
2023-01-19T19:02:01.841Z,74.70
2023-01-19T19:03:33.434Z,72.73
2023-01-19T19:05:07.512Z,73.96
2023-01-19T19:06:39.162Z,74.51
2023-01-19T19:08:10.731Z,74.48
2023-01-19T19:09:42.305Z,74.73
2023-01-19T19:11:14.272Z,74.26
2023-01-19T19:12:45.912Z,74.63
2023-01-19T19:14:17.683Z,74.58
2023-01-19T19:15:49.329Z,75.34
2023-01-19T19:17:21.073Z,75.08
2023-01-19T19:18:52.728Z,75.86
2023-01-19T19:20:25.682Z,76.16
2023-01-19T19:21:57.294Z,75.48
2023-01-19T19:23:28.850Z,75.34
2023-01-19T19:25:00.524Z,75.16
2023-01-19T19:26:32.653Z,76.03
2023-01-19T19:28:04.380Z,74.99
2023-01-19T19:29:35.990Z,75.96
2023-01-19T19:31:08.519Z,75.56
2023-01-19T19:32:40.157Z,76.05
2023-01-19T19:34:12.495Z,76.44
2023-01-19T19:35:45.428Z,76.27
2023-01-19T19:37:17.159Z,76.59
2023-01-19T19:38:48.837Z,75.99
2023-01-19T19:40:20.439Z,75.73
2023-01-19T19:41:52.009Z,76.35
2023-01-19T19:43:23.819Z,76.74
2023-01-19T19:44:55.677Z,76.51
2023-01-19T19:46:27.430Z,76.19
2023-01-19T19:47:59.028Z,76.51
2023-01-19T19:49:30.635Z,76.90
2023-01-19T19:51:17.665Z,77.41
2023-01-19T19:52:50.328Z,77.37
2023-01-19T19:54:21.982Z,76.59
2023-01-19T19:55:57.024Z,77.19
2023-01-19T19:57:28.582Z,77.37
2023-01-19T19:59:00.734Z,77.60
2023-01-19T20:00:32.371Z,77.35
2023-01-19T20:02:04.000Z,77.33
2023-01-19T20:03:36.102Z,77.36
2023-01-19T20:05:08.436Z,77.88
2023-01-19T20:06:44.327Z,76.94
2023-01-19T20:08:15.926Z,76.75